Baxterville, Colorado
Current Conditions -  °F | °C
As of 12:50 AM on Tuesday 21 Oct 2014 (Local Time) from KRCV Reporting Station
Clear Clear  
Wind Chill: 36°   Ceiling: Unl
Heat Index: 42°   Visibility: 10mi
Dew Point: 33°   Wind: 12mph
Humidity: 70%   Direction: 260°W
Pressure: 30.27"   Gusts: NA
Location:  37.6359°N, 106.449°W
Report Text: KRCV 210650Z AUTO 26010KT 10SM CLR 06/01 A3027 RMK AO2 T00560005 401760035
Loading
Personal Weather Stations






























Interactive Weather Map
Tropical Storm Tracking
New forecast layout! Learn more

10-Day Weather Forecast

Advertisements
Track Severe Weather on mobile